createdAt,value
2017-09-06T00:02:10.692Z,23.70
2017-09-06T00:04:42.978Z,25.57
2017-09-06T00:07:15.526Z,23.90
2017-09-06T00:09:47.786Z,24.00
2017-09-06T00:12:21.408Z,25.10
2017-09-06T00:14:53.775Z,24.67
2017-09-06T00:17:27.984Z,27.00
2017-09-06T00:20:00.173Z,25.40
2017-09-06T00:22:32.882Z,26.40
2017-09-06T00:25:05.087Z,26.83
2017-09-06T00:27:37.798Z,25.73
2017-09-06T00:30:10.077Z,26.17
2017-09-06T00:32:42.833Z,27.40
2017-09-06T00:35:15.028Z,27.03
2017-09-06T00:37:48.251Z,25.83
2017-09-06T00:40:20.656Z,25.60
2017-09-06T00:42:53.351Z,26.47
2017-09-06T00:45:25.741Z,27.70
2017-09-06T00:47:58.219Z,26.83
2017-09-06T00:50:31.210Z,27.30
2017-09-06T00:53:03.772Z,25.63
2017-09-06T00:55:35.947Z,25.73
2017-09-06T00:58:08.598Z,26.17
2017-09-06T01:00:40.875Z,24.37
2017-09-06T01:03:13.663Z,25.73
2017-09-06T01:05:46.047Z,26.80
2017-09-06T01:08:18.704Z,26.10
2017-09-06T01:10:51.039Z,26.20
2017-09-06T01:13:24.755Z,25.23
2017-09-06T01:15:57.013Z,25.90
2017-09-06T01:18:30.570Z,25.97
2017-09-06T01:21:02.780Z,25.93
2017-09-06T01:23:35.358Z,24.80
2017-09-06T01:26:07.527Z,25.20
2017-09-06T01:28:40.267Z,25.17
2017-09-06T01:31:12.539Z,23.67
2017-09-06T01:33:45.293Z,25.13
2017-09-06T01:36:17.566Z,25.37
2017-09-06T01:38:50.036Z,26.33
2017-09-06T01:41:22.528Z,28.07
2017-09-06T01:43:55.620Z,25.93
2017-09-06T01:46:27.837Z,26.40
2017-09-06T01:49:00.678Z,27.23
2017-09-06T01:51:32.851Z,26.00
2017-09-06T01:54:05.529Z,26.33
2017-09-06T01:56:37.831Z,26.90
2017-09-06T01:59:10.399Z,26.97
2017-09-06T02:01:42.778Z,25.93
2017-09-06T02:04:15.757Z,25.03
2017-09-06T02:06:47.947Z,25.30
2017-09-06T02:09:20.664Z,26.13
2017-09-06T02:11:53.006Z,26.60
2017-09-06T02:14:25.823Z,24.60
2017-09-06T02:16:58.187Z,25.93
2017-09-06T02:19:30.879Z,24.40
2017-09-06T02:22:03.261Z,24.90
2017-09-06T02:24:35.818Z,24.30
2017-09-06T02:27:08.115Z,24.97
2017-09-06T02:29:40.680Z,24.60
2017-09-06T02:32:12.827Z,24.50
2017-09-06T02:34:45.265Z,25.00
2017-09-06T02:37:17.692Z,24.40
2017-09-06T02:39:50.171Z,24.10
2017-09-06T02:42:22.521Z,24.00
2017-09-06T02:44:55.256Z,22.83
2017-09-06T02:47:27.448Z,23.67
2017-09-06T02:50:00.090Z,23.67
2017-09-06T02:52:32.349Z,22.50
2017-09-06T02:55:05.016Z,22.83
2017-09-06T02:57:37.245Z,22.63
2017-09-06T03:00:09.890Z,21.77
2017-09-06T03:02:42.292Z,22.67
2017-09-06T03:07:53.024Z,21.43
2017-09-06T03:10:25.607Z,20.80
2017-09-06T03:12:57.834Z,20.90
2017-09-06T03:15:30.633Z,21.90
2017-09-06T03:18:02.903Z,21.17
2017-09-06T03:20:35.519Z,20.90
2017-09-06T03:23:07.825Z,22.27
2017-09-06T03:25:40.479Z,21.30
2017-09-06T03:28:12.799Z,22.20
2017-09-06T03:30:45.490Z,22.50
2017-09-06T03:33:17.844Z,23.07
2017-09-06T03:35:50.668Z,21.83
2017-09-06T03:38:22.953Z,22.60
2017-09-06T03:40:55.611Z,23.77
2017-09-06T03:43:28.169Z,22.93
2017-09-06T03:46:00.777Z,23.10
2017-09-06T03:48:33.113Z,22.30
2017-09-06T03:51:05.811Z,21.83
2017-09-06T03:53:38.106Z,20.20
2017-09-06T03:56:10.716Z,20.90
2017-09-06T03:58:43.142Z,21.60
2017-09-06T04:01:15.608Z,20.47
2017-09-06T04:03:47.878Z,20.10
2017-09-06T04:06:20.442Z,20.80
2017-09-06T04:08:52.820Z,20.60
2017-09-06T04:11:25.506Z,20.60
2017-09-06T04:13:57.882Z,21.13
2017-09-06T04:16:30.450Z,21.17
2017-09-06T04:19:02.684Z,20.50
2017-09-06T04:21:35.403Z,21.60
2017-09-06T04:24:07.726Z,21.07
2017-09-06T04:26:40.446Z,21.87
2017-09-06T04:29:12.859Z,21.03
2017-09-06T04:31:46.493Z,21.40
2017-09-06T04:34:18.737Z,22.33
2017-09-06T04:36:51.689Z,20.90
2017-09-06T04:39:24.148Z,20.20
2017-09-06T04:41:56.577Z,20.07
2017-09-06T04:44:28.745Z,21.10
2017-09-06T04:47:01.387Z,21.10
2017-09-06T04:49:33.651Z,21.70
2017-09-06T04:52:06.314Z,21.67
2017-09-06T04:54:38.541Z,20.70
2017-09-06T04:57:10.944Z,21.07
2017-09-06T04:59:43.148Z,21.90
2017-09-06T05:02:15.805Z,20.70
2017-09-06T05:04:48.135Z,21.90
2017-09-06T05:07:20.566Z,21.50
2017-09-06T05:09:52.933Z,21.17
2017-09-06T05:12:25.602Z,20.80
2017-09-06T05:14:58.036Z,20.90
2017-09-06T05:17:30.779Z,21.00
2017-09-06T05:20:02.990Z,21.00
2017-09-06T05:22:35.710Z,21.77
2017-09-06T05:25:08.227Z,21.90
2017-09-06T05:27:41.077Z,21.53
2017-09-06T05:30:13.310Z,24.07
2017-09-06T05:32:45.752Z,20.90
2017-09-06T05:35:18.194Z,21.60
2017-09-06T05:37:50.675Z,20.83
2017-09-06T05:40:23.024Z,20.40
2017-09-06T05:42:55.731Z,22.07
2017-09-06T05:45:28.190Z,20.93
2017-09-06T05:48:00.762Z,20.80
2017-09-06T05:50:33.063Z,21.07
2017-09-06T05:53:05.831Z,21.33
2017-09-06T05:55:38.111Z,20.53
2017-09-06T05:58:10.687Z,22.13
2017-09-06T06:00:43.071Z,22.50
2017-09-06T06:03:15.646Z,23.10
2017-09-06T06:05:48.060Z,21.17
2017-09-06T06:08:20.769Z,22.27
2017-09-06T06:10:53.153Z,23.03
2017-09-06T06:13:26.933Z,22.07
2017-09-06T06:15:59.138Z,26.23
2017-09-06T06:18:31.642Z,20.27
2017-09-06T06:21:03.906Z,22.07
2017-09-06T06:23:36.750Z,20.60
2017-09-06T06:26:08.909Z,20.87
2017-09-06T06:28:41.390Z,21.57
2017-09-06T06:31:13.789Z,26.90
2017-09-06T06:33:46.289Z,22.73
2017-09-06T06:36:18.465Z,22.30
2017-09-06T06:38:50.961Z,24.30
2017-09-06T06:41:23.235Z,21.50
2017-09-06T06:43:56.070Z,21.20
2017-09-06T06:46:28.291Z,22.43
2017-09-06T06:49:00.777Z,22.53
2017-09-06T06:51:33.106Z,21.63
2017-09-06T06:54:05.643Z,22.30
2017-09-06T06:56:38.041Z,22.20
2017-09-06T06:59:10.613Z,22.07
2017-09-06T07:01:43.705Z,20.70
2017-09-06T07:28:32.514Z,21.17
2017-09-06T07:42:28.228Z,20.88
2017-09-06T07:45:00.502Z,23.00
2017-09-06T07:50:19.713Z,19.90
2017-09-06T07:54:08.051Z,19.17
2017-09-06T07:56:34.180Z,19.77
2017-09-06T07:59:00.603Z,22.80
2017-09-06T08:01:27.142Z,24.40
2017-09-06T08:03:53.305Z,23.80
2017-09-06T08:06:19.506Z,25.60
2017-09-06T08:08:45.673Z,25.80
2017-09-06T08:11:12.027Z,23.30
2017-09-06T08:13:38.233Z,26.20
2017-09-06T08:16:04.400Z,25.43
2017-09-06T08:21:33.482Z,26.90
2017-09-06T08:23:59.753Z,26.77
2017-09-06T08:26:25.934Z,30.83
2017-09-06T08:28:52.225Z,32.57
2017-09-06T08:31:18.381Z,29.67
2017-09-06T08:33:44.588Z,31.77
2017-09-06T08:36:10.840Z,31.73
2017-09-06T08:38:38.062Z,35.50
2017-09-06T08:41:04.277Z,32.47
2017-09-06T08:43:30.473Z,35.73
2017-09-06T08:45:56.777Z,36.40
2017-09-06T08:48:22.984Z,38.63
2017-09-06T08:50:49.105Z,36.00
2017-09-06T08:53:15.372Z,45.17
2017-09-06T08:55:41.668Z,40.50
2017-09-06T08:58:07.858Z,35.13
2017-09-06T09:00:34.248Z,37.80
2017-09-06T09:03:00.521Z,40.90
2017-09-06T09:05:26.821Z,32.80
2017-09-06T09:07:52.980Z,31.47
2017-09-06T09:10:19.266Z,31.13
2017-09-06T09:12:46.201Z,33.90
2017-09-06T09:15:12.434Z,29.10
2017-09-06T09:17:38.638Z,30.63
2017-09-06T09:20:04.896Z,28.63
2017-09-06T09:22:31.122Z,31.70
2017-09-06T09:24:57.368Z,32.33
2017-09-06T09:27:23.531Z,34.37
2017-09-06T09:29:49.717Z,35.10
2017-09-06T09:32:15.994Z,34.53
2017-09-06T09:34:42.263Z,36.43
2017-09-06T09:37:08.476Z,35.50
2017-09-06T09:39:34.645Z,33.50
2017-09-06T09:42:00.803Z,34.50
2017-09-06T09:44:26.970Z,40.60
2017-09-06T09:46:53.172Z,36.07
2017-09-06T09:49:19.358Z,38.13
2017-09-06T09:51:45.630Z,35.33
2017-09-06T09:54:11.857Z,30.67
2017-09-06T09:56:38.058Z,31.30
2017-09-06T09:59:04.298Z,29.50
2017-09-06T10:01:30.608Z,34.40
2017-09-06T10:03:56.857Z,31.87
2017-09-06T10:06:23.160Z,28.60
2017-09-06T10:08:49.383Z,29.73
2017-09-06T10:11:15.594Z,29.27
2017-09-06T10:13:41.962Z,29.20
2017-09-06T10:16:08.204Z,26.83
2017-09-06T10:18:34.404Z,26.60
2017-09-06T10:21:00.621Z,25.13
2017-09-06T10:23:26.843Z,24.90
2017-09-06T10:25:53.107Z,26.17
2017-09-06T10:28:19.313Z,27.30
2017-09-06T10:30:45.535Z,25.93
2017-09-06T10:33:11.894Z,24.50
2017-09-06T10:35:38.452Z,21.53
2017-09-06T10:38:04.603Z,26.83
2017-09-06T10:40:30.796Z,35.23
2017-09-06T10:42:57.042Z,21.97
2017-09-06T10:45:23.318Z,33.23
2017-09-06T10:47:49.771Z,25.93
2017-09-06T10:50:16.057Z,35.10
2017-09-06T10:52:42.305Z,23.17
2017-09-06T10:55:08.605Z,29.33
2017-09-06T10:57:34.913Z,26.03
2017-09-06T11:00:01.176Z,25.73
2017-09-06T11:02:28.272Z,23.00
2017-09-06T11:04:54.450Z,24.27
2017-09-06T11:07:20.933Z,18.93
2017-09-06T11:09:47.095Z,21.93
2017-09-06T11:12:13.356Z,16.73
2017-09-06T11:14:39.501Z,13.77
2017-09-06T11:17:05.737Z,13.37
2017-09-06T11:19:31.853Z,10.97
2017-09-06T11:21:58.103Z,13.93
2017-09-06T11:24:24.248Z,15.83
2017-09-06T11:26:50.393Z,8.37
2017-09-06T11:29:16.632Z,8.20
2017-09-06T11:31:42.916Z,6.20
2017-09-06T11:34:09.099Z,8.37
2017-09-06T11:36:35.336Z,8.57
2017-09-06T11:39:01.568Z,7.60
2017-09-06T11:41:27.883Z,7.00
2017-09-06T11:43:54.140Z,7.53
2017-09-06T11:46:20.331Z,7.10
2017-09-06T11:48:46.559Z,6.30
2017-09-06T11:51:12.756Z,7.07
2017-09-06T11:53:39.041Z,7.33
2017-09-06T11:56:05.274Z,8.70
2017-09-06T11:58:31.438Z,8.30
2017-09-06T12:00:57.694Z,9.93
2017-09-06T12:03:23.876Z,8.07
2017-09-06T12:05:50.026Z,11.40
2017-09-06T12:08:16.284Z,12.20
2017-09-06T12:10:42.562Z,8.03
2017-09-06T12:13:08.810Z,8.07
2017-09-06T12:15:35.135Z,8.33
2017-09-06T12:18:01.553Z,7.83
2017-09-06T12:20:27.837Z,7.47
2017-09-06T12:22:54.220Z,7.67
2017-09-06T12:25:20.362Z,7.17
2017-09-06T12:27:46.534Z,7.70
2017-09-06T12:30:18.777Z,8.57
2017-09-06T12:32:44.939Z,9.73
2017-09-06T12:35:11.150Z,7.80
2017-09-06T12:37:37.386Z,7.30
2017-09-06T12:40:03.554Z,6.63
2017-09-06T12:42:35.708Z,6.67
2017-09-06T12:45:02.017Z,6.50
2017-09-06T12:47:28.382Z,6.93
2017-09-06T12:49:54.713Z,6.70
2017-09-06T12:52:20.877Z,6.97
2017-09-06T12:54:47.046Z,6.43
2017-09-06T12:57:13.291Z,6.10
2017-09-06T12:59:39.592Z,6.30
2017-09-06T13:02:05.862Z,6.13
2017-09-06T13:04:32.048Z,6.10
2017-09-06T13:06:58.285Z,8.30
2017-09-06T13:09:24.428Z,5.70
2017-09-06T13:11:50.691Z,9.67
2017-09-06T13:14:16.875Z,6.70
2017-09-06T13:16:43.154Z,7.70
2017-09-06T13:19:09.360Z,6.70
2017-09-06T13:21:35.576Z,7.47
2017-09-06T13:24:01.791Z,6.73
2017-09-06T13:26:28.008Z,6.73
2017-09-06T13:28:54.143Z,7.70
2017-09-06T13:31:20.342Z,6.33
2017-09-06T13:33:47.170Z,6.53
2017-09-06T13:36:13.366Z,7.47
2017-09-06T13:38:39.666Z,7.00
2017-09-06T13:41:05.867Z,8.97
2017-09-06T13:43:32.081Z,7.50
2017-09-06T13:45:58.256Z,8.97
2017-09-06T13:48:24.479Z,7.37
2017-09-06T13:50:51.414Z,8.20
2017-09-06T13:53:17.722Z,11.07
2017-09-06T13:55:43.896Z,8.30
2017-09-06T13:58:10.202Z,9.80
2017-09-06T14:00:36.542Z,10.00
2017-09-06T14:03:02.861Z,8.80
2017-09-06T14:05:29.127Z,5.00
2017-09-06T14:07:55.301Z,4.70
2017-09-06T14:10:21.572Z,3.10
2017-09-06T14:12:47.774Z,2.83
2017-09-06T14:15:13.999Z,3.90
2017-09-06T14:17:40.298Z,4.27
2017-09-06T14:20:06.523Z,5.27
2017-09-06T14:22:32.685Z,4.47
2017-09-06T14:24:58.876Z,6.03
2017-09-06T14:27:25.211Z,5.67
2017-09-06T14:29:51.371Z,7.27
2017-09-06T14:32:17.699Z,7.00
2017-09-06T14:34:43.993Z,9.10
2017-09-06T14:37:10.205Z,7.10
2017-09-06T14:39:36.390Z,5.90
2017-09-06T14:42:02.702Z,9.40
2017-09-06T14:44:28.942Z,9.03
2017-09-06T14:46:55.184Z,7.23
2017-09-06T14:49:21.376Z,9.40
2017-09-06T14:51:47.548Z,8.20
2017-09-06T14:54:13.889Z,10.90
2017-09-06T14:56:41.017Z,9.80
2017-09-06T14:59:07.224Z,9.07
2017-09-06T15:01:33.456Z,6.80
2017-09-06T15:03:59.696Z,7.73
2017-09-06T15:06:25.908Z,8.30
2017-09-06T15:08:52.167Z,8.83
2017-09-06T15:11:18.473Z,8.57
2017-09-06T15:13:44.671Z,6.63
2017-09-06T15:16:10.887Z,6.63
2017-09-06T15:18:37.127Z,6.90
2017-09-06T15:21:03.327Z,7.53
2017-09-06T15:23:29.622Z,6.43
2017-09-06T15:25:55.833Z,5.80
2017-09-06T15:28:22.083Z,6.30
2017-09-06T15:30:48.372Z,6.60
2017-09-06T15:33:14.510Z,7.50
2017-09-06T15:35:40.661Z,6.33
2017-09-06T15:38:06.897Z,6.47
2017-09-06T15:40:33.080Z,6.43
2017-09-06T15:42:59.390Z,6.83
2017-09-06T15:45:25.657Z,6.80
2017-09-06T15:47:52.060Z,6.80
2017-09-06T15:50:18.292Z,6.73
2017-09-06T15:52:44.524Z,7.23
2017-09-06T15:55:10.746Z,7.30
2017-09-06T15:57:37.103Z,7.40
2017-09-06T16:00:03.546Z,6.63
2017-09-06T16:02:29.827Z,7.37
2017-09-06T16:04:56.222Z,7.60
2017-09-06T16:07:22.541Z,11.23
2017-09-06T16:09:49.514Z,11.87
2017-09-06T16:12:16.155Z,9.20
2017-09-06T16:14:42.369Z,10.00
2017-09-06T16:17:08.706Z,9.37
2017-09-06T16:19:34.977Z,8.07
2017-09-06T16:22:01.278Z,7.33
2017-09-06T16:24:27.474Z,7.50
2017-09-06T16:26:54.741Z,7.30
2017-09-06T16:29:21.046Z,5.90
2017-09-06T16:31:47.300Z,6.63
2017-09-06T16:34:13.787Z,9.13
2017-09-06T16:36:39.987Z,7.63
2017-09-06T16:39:06.196Z,9.97
2017-09-06T16:41:32.361Z,9.80
2017-09-06T16:43:59.064Z,12.43
2017-09-06T16:46:25.278Z,13.13
2017-09-06T16:48:51.512Z,9.63
2017-09-06T16:51:17.736Z,10.13
2017-09-06T16:53:43.996Z,9.20
2017-09-06T16:56:10.330Z,7.93
2017-09-06T16:58:36.630Z,6.63
2017-09-06T17:01:02.978Z,6.57
2017-09-06T17:03:29.244Z,5.40
2017-09-06T17:05:55.501Z,4.40
2017-09-06T17:08:21.760Z,4.13
2017-09-06T17:10:48.114Z,4.80
2017-09-06T17:13:14.448Z,3.40
2017-09-06T17:15:40.809Z,4.07
2017-09-06T17:18:07.301Z,5.70
2017-09-06T17:20:33.594Z,4.83
2017-09-06T17:22:59.796Z,6.07
2017-09-06T17:25:26.028Z,3.40
2017-09-06T17:27:52.305Z,4.63
2017-09-06T17:30:18.548Z,5.50
2017-09-06T17:32:50.923Z,4.47
2017-09-06T17:35:17.216Z,3.00
2017-09-06T17:37:43.576Z,2.00
2017-09-06T17:40:09.952Z,2.07
2017-09-06T17:42:36.241Z,2.20
2017-09-06T17:45:02.495Z,2.93
2017-09-06T17:47:28.702Z,2.83
2017-09-06T17:49:54.914Z,2.97
2017-09-06T17:52:21.146Z,5.17
2017-09-06T17:54:47.501Z,8.90
2017-09-06T17:57:13.712Z,2.40
2017-09-06T17:59:40.097Z,3.80
2017-09-06T18:02:06.438Z,3.50
2017-09-06T18:04:32.605Z,2.57
2017-09-06T18:06:58.987Z,2.33
2017-09-06T18:09:25.654Z,2.47
2017-09-06T18:11:51.883Z,2.40
2017-09-06T18:14:18.228Z,1.60
2017-09-06T18:16:44.456Z,2.00
2017-09-06T18:19:10.766Z,2.33
2017-09-06T18:21:37.123Z,2.40
2017-09-06T18:24:03.337Z,1.70
2017-09-06T18:26:29.553Z,1.50
2017-09-06T18:28:55.832Z,1.90
2017-09-06T18:31:22.156Z,2.33
2017-09-06T18:33:48.415Z,2.20
2017-09-06T18:36:14.705Z,1.47
2017-09-06T18:38:40.928Z,1.97
2017-09-06T18:41:07.034Z,2.00
2017-09-06T18:43:33.282Z,1.77
2017-09-06T18:45:59.465Z,2.10
2017-09-06T18:48:25.721Z,2.10
2017-09-06T18:50:52.008Z,2.10
2017-09-06T18:53:18.267Z,2.00
2017-09-06T18:55:44.397Z,2.73
2017-09-06T18:58:10.519Z,2.43
2017-09-06T19:00:36.718Z,2.40
2017-09-06T19:03:02.926Z,2.20
2017-09-06T19:05:29.249Z,1.73
2017-09-06T19:07:55.463Z,1.87
2017-09-06T19:10:21.693Z,1.97
2017-09-06T19:12:47.893Z,3.20
2017-09-06T19:15:14.092Z,2.47
2017-09-06T19:17:40.283Z,2.70
2017-09-06T19:20:06.633Z,3.60
2017-09-06T19:22:32.886Z,5.80
2017-09-06T19:24:59.096Z,6.90
2017-09-06T19:27:25.230Z,6.03
2017-09-06T19:29:51.484Z,5.00
2017-09-06T19:32:17.871Z,7.03
2017-09-06T19:34:44.246Z,5.83
2017-09-06T19:37:10.449Z,3.90
2017-09-06T19:39:36.736Z,3.13
2017-09-06T19:42:02.974Z,3.30
2017-09-06T19:44:29.131Z,3.70
2017-09-06T19:46:55.758Z,2.27
2017-09-06T19:49:22.403Z,3.20
2017-09-06T19:51:48.585Z,2.40
2017-09-06T19:54:14.794Z,2.80
2017-09-06T19:56:40.888Z,3.23
2017-09-06T19:59:07.389Z,3.20
2017-09-06T20:01:33.500Z,2.50
2017-09-06T20:03:59.730Z,2.83
2017-09-06T20:06:25.928Z,2.40
2017-09-06T20:08:52.028Z,2.10
2017-09-06T20:11:18.252Z,2.03
2017-09-06T20:13:44.471Z,2.30
2017-09-06T20:16:10.694Z,2.23
2017-09-06T20:18:36.908Z,1.93
2017-09-06T20:21:03.186Z,1.90
2017-09-06T20:23:29.493Z,2.07
2017-09-06T20:25:55.627Z,2.17
2017-09-06T20:28:21.782Z,3.57
2017-09-06T20:30:47.981Z,2.13
2017-09-06T20:33:14.218Z,2.07
2017-09-06T20:35:40.505Z,2.57
2017-09-06T20:38:06.843Z,2.10
2017-09-06T20:40:32.957Z,2.10
2017-09-06T20:42:59.256Z,2.10
2017-09-06T20:45:25.463Z,2.17
2017-09-06T20:47:51.816Z,6.53
2017-09-06T20:50:17.953Z,4.43
2017-09-06T20:52:44.355Z,2.70
2017-09-06T20:55:10.494Z,2.80
2017-09-06T20:57:36.665Z,2.70
2017-09-06T21:00:02.928Z,3.20
2017-09-06T21:02:29.135Z,2.90
2017-09-06T21:04:55.320Z,2.63
2017-09-06T21:07:21.515Z,1.80
2017-09-06T21:09:47.634Z,2.20
2017-09-06T21:12:13.802Z,2.20
2017-09-06T21:14:39.991Z,2.63
2017-09-06T21:17:06.390Z,2.03
2017-09-06T21:19:32.542Z,2.73
2017-09-06T21:21:58.666Z,3.17
2017-09-06T21:24:24.976Z,3.00
2017-09-06T21:26:51.125Z,2.43
2017-09-06T21:29:17.254Z,2.43
2017-09-06T21:31:43.439Z,2.47
2017-09-06T21:34:09.766Z,2.50
2017-09-06T21:36:35.980Z,2.83
2017-09-06T21:39:02.128Z,2.80
2017-09-06T21:41:28.306Z,2.80
2017-09-06T21:43:54.452Z,2.60
2017-09-06T21:46:20.734Z,2.60
2017-09-06T21:48:46.935Z,3.37
2017-09-06T21:51:13.265Z,3.57
2017-09-06T21:53:39.478Z,2.60
2017-09-06T21:56:05.718Z,2.50
2017-09-06T21:58:31.928Z,2.23
2017-09-06T22:00:58.163Z,1.93
2017-09-06T22:03:24.829Z,2.30
2017-09-06T22:05:51.159Z,2.63
2017-09-06T22:08:17.471Z,2.20
2017-09-06T22:10:43.848Z,2.20
2017-09-06T22:13:10.225Z,2.60
2017-09-06T22:15:36.497Z,2.60
2017-09-06T22:18:02.810Z,2.57
2017-09-06T22:20:29.061Z,2.30
2017-09-06T22:22:55.472Z,2.30
2017-09-06T22:25:21.865Z,2.30
2017-09-06T22:27:48.098Z,3.00
2017-09-06T22:30:14.351Z,2.60
2017-09-06T22:32:40.569Z,3.87
2017-09-06T22:35:06.967Z,6.33
2017-09-06T22:37:33.259Z,4.00
2017-09-06T22:39:59.407Z,10.83
2017-09-06T22:42:25.976Z,5.33
2017-09-06T22:44:52.173Z,5.30
2017-09-06T22:47:18.491Z,3.80
2017-09-06T22:49:44.668Z,5.37
2017-09-06T22:52:10.858Z,3.90
2017-09-06T22:54:37.045Z,5.20
2017-09-06T22:57:03.198Z,4.20
2017-09-06T22:59:29.312Z,4.10
2017-09-06T23:01:56.368Z,3.80
2017-09-06T23:04:22.616Z,5.43
2017-09-06T23:06:48.756Z,3.93
2017-09-06T23:09:15.000Z,3.03
2017-09-06T23:11:41.273Z,3.33
2017-09-06T23:14:07.474Z,3.03
2017-09-06T23:16:33.610Z,3.20
2017-09-06T23:18:59.769Z,2.87
2017-09-06T23:21:25.962Z,3.03
2017-09-06T23:23:52.125Z,4.60
2017-09-06T23:26:18.236Z,2.90
2017-09-06T23:28:44.572Z,3.30
2017-09-06T23:31:10.744Z,2.67
2017-09-06T23:33:36.888Z,2.90
2017-09-06T23:36:03.087Z,3.00
2017-09-06T23:38:29.269Z,2.83
2017-09-06T23:40:55.387Z,2.90
2017-09-06T23:43:21.513Z,3.00
2017-09-06T23:45:47.698Z,3.00
2017-09-06T23:48:13.907Z,2.83
2017-09-06T23:50:40.044Z,3.40
2017-09-06T23:53:06.246Z,2.77
2017-09-06T23:55:32.348Z,2.20
2017-09-06T23:57:58.531Z,2.57
